Capulin, New Mexico
Current Conditions -  °F | °C
As of 3:53 AM on Friday 31 Oct 2014 (Local Time) from KRTN Reporting Station
Clear Clear  
Wind Chill: 34°   Ceiling: Unl
Heat Index: 34°   Visibility: 10mi
Dew Point: 22°   Wind: 3mph
Humidity: 61%   Direction: 40°NE
Pressure: 30.43"   Gusts: NA
Location:  36.74°N, 103.99°W
Report Text: KRTN 310953Z AUTO 04003KT 10SM CLR 01/M06 A3043 RMK AO2 SLP264 T00111056
Loading
Personal Weather Stations






























Interactive Weather Map
Tropical Storm Tracking
New forecast layout! Learn more

10-Day Weather Forecast

Advertisements
Track Severe Weather on mobile